createdAt,value
2023-04-15T00:00:09.257Z,0.00
2023-04-15T00:01:09.232Z,0.00
2023-04-15T00:02:09.267Z,0.00
2023-04-15T00:03:09.329Z,0.00
2023-04-15T00:04:09.223Z,0.00
2023-04-15T00:05:09.187Z,0.00
2023-04-15T00:06:09.162Z,0.00
2023-04-15T00:07:09.168Z,0.00
2023-04-15T00:08:09.128Z,0.00
2023-04-15T00:09:09.106Z,0.00
2023-04-15T00:10:09.100Z,0.00
2023-04-15T00:11:09.084Z,0.00
2023-04-15T00:12:09.089Z,0.00
2023-04-15T00:13:09.052Z,0.00
2023-04-15T00:14:09.036Z,0.00
2023-04-15T00:15:09.018Z,0.00
2023-04-15T00:16:09.003Z,0.00
2023-04-15T00:17:08.988Z,0.00
2023-04-15T00:18:08.973Z,0.00
2023-04-15T00:19:08.957Z,0.00
2023-04-15T00:20:08.942Z,0.00
2023-04-15T00:21:08.925Z,0.00
2023-04-15T00:22:08.910Z,0.00
2023-04-15T00:23:08.901Z,0.00
2023-04-15T00:24:08.891Z,0.00
2023-04-15T00:25:08.867Z,0.00
2023-04-15T00:26:08.870Z,0.00
2023-04-15T00:27:08.889Z,0.00
2023-04-15T00:28:08.851Z,0.00
2023-04-15T00:29:08.805Z,0.00
2023-04-15T00:30:08.797Z,0.00
2023-04-15T00:31:08.801Z,0.00
2023-04-15T00:32:08.762Z,0.00
2023-04-15T00:33:08.751Z,0.00
2023-04-15T00:34:08.756Z,0.00
2023-04-15T00:35:08.714Z,0.00
2023-04-15T00:36:08.700Z,0.00
2023-04-15T00:37:08.680Z,0.00
2023-04-15T00:38:08.681Z,0.00
2023-04-15T00:39:08.654Z,0.00
2023-04-15T00:40:08.639Z,0.00
2023-04-15T00:41:08.622Z,0.00
2023-04-15T00:42:08.615Z,0.00
2023-04-15T00:43:08.594Z,0.00
2023-04-15T00:44:08.620Z,0.00
2023-04-15T00:45:08.563Z,0.00
2023-04-15T00:46:08.567Z,0.00
2023-04-15T00:47:08.532Z,0.00
2023-04-15T00:48:08.525Z,0.00
2023-04-15T00:49:08.520Z,0.00
2023-04-15T00:50:08.487Z,0.00
2023-04-15T00:51:08.473Z,0.00
2023-04-15T00:52:08.457Z,0.00
2023-04-15T00:53:08.441Z,0.00
2023-04-15T00:54:08.427Z,0.00
2023-04-15T00:55:08.411Z,0.00
2023-04-15T00:56:08.396Z,0.00
2023-04-15T00:57:08.382Z,0.00
2023-04-15T00:58:08.366Z,0.00
2023-04-15T00:59:08.352Z,0.00
2023-04-15T01:00:08.356Z,0.00
2023-04-15T01:01:08.334Z,0.00
2023-04-15T01:02:08.513Z,0.00
2023-04-15T01:03:08.416Z,0.00
2023-04-15T01:04:08.329Z,0.00
2023-04-15T01:05:08.262Z,0.00
2023-04-15T01:06:08.251Z,0.00
2023-04-15T01:07:08.231Z,0.00
2023-04-15T01:08:08.225Z,0.00
2023-04-15T01:09:08.207Z,0.00
2023-04-15T01:10:08.194Z,0.00
2023-04-15T01:11:08.175Z,0.00
2023-04-15T01:12:08.152Z,0.00
2023-04-15T01:13:08.143Z,0.00
2023-04-15T01:14:08.122Z,0.00
2023-04-15T01:15:08.107Z,0.00
2023-04-15T01:16:08.189Z,0.00
2023-04-15T01:17:08.098Z,0.00
2023-04-15T01:18:08.060Z,0.00
2023-04-15T01:19:08.055Z,0.00
2023-04-15T01:20:08.041Z,0.00
2023-04-15T01:21:08.020Z,0.00
2023-04-15T01:22:08.007Z,0.00
2023-04-15T01:23:07.996Z,0.00
2023-04-15T01:24:07.970Z,0.00
2023-04-15T01:25:07.962Z,0.00
2023-04-15T01:26:07.949Z,0.00
2023-04-15T01:27:07.934Z,0.00
2023-04-15T01:28:07.910Z,0.00
2023-04-15T01:29:07.898Z,0.00
2023-04-15T01:30:07.878Z,0.00
2023-04-15T01:31:07.994Z,0.00
2023-04-15T01:32:08.004Z,0.00
2023-04-15T01:33:07.836Z,0.00
2023-04-15T01:34:07.818Z,0.00
2023-04-15T01:35:07.814Z,0.00
2023-04-15T01:36:07.788Z,0.00
2023-04-15T01:37:07.779Z,0.00
2023-04-15T01:38:07.773Z,0.00
2023-04-15T01:39:07.749Z,0.00
2023-04-15T01:40:07.727Z,0.00
2023-04-15T01:41:07.929Z,0.00
2023-04-15T01:42:07.710Z,0.00
2023-04-15T01:43:07.689Z,0.00
2023-04-15T01:44:07.682Z,0.00
2023-04-15T01:45:07.657Z,0.00
2023-04-15T01:46:07.641Z,0.00
2023-04-15T01:47:07.637Z,0.00
2023-04-15T01:48:07.630Z,0.00
2023-04-15T01:49:07.629Z,0.00
2023-04-15T01:50:07.587Z,0.00
2023-04-15T01:51:07.576Z,0.00
2023-04-15T01:52:07.551Z,0.00
2023-04-15T01:53:07.540Z,0.00
2023-04-15T01:54:07.524Z,0.00
2023-04-15T01:55:07.511Z,0.00
2023-04-15T01:56:07.499Z,0.00
2023-04-15T01:57:07.481Z,0.00
2023-04-15T01:58:07.460Z,0.00
2023-04-15T01:59:07.455Z,0.00
2023-04-15T02:00:07.432Z,0.00
2023-04-15T02:01:07.460Z,0.00
2023-04-15T02:02:07.440Z,0.00
2023-04-15T02:03:07.458Z,0.00
2023-04-15T02:04:07.444Z,0.00
2023-04-15T02:05:07.360Z,0.00
2023-04-15T02:06:07.343Z,0.00
2023-04-15T02:07:07.332Z,0.00
2023-04-15T02:08:07.313Z,0.00
2023-04-15T02:09:07.300Z,0.00
2023-04-15T02:10:07.281Z,0.00
2023-04-15T02:11:07.278Z,0.00
2023-04-15T02:12:07.251Z,0.00
2023-04-15T02:14:07.228Z,0.00
2023-04-15T02:15:07.210Z,0.00
2023-04-15T02:16:07.216Z,0.00
2023-04-15T02:17:07.175Z,0.00
2023-04-15T02:18:07.165Z,0.00
2023-04-15T02:19:07.154Z,0.00
2023-04-15T02:20:07.157Z,0.00
2023-04-15T02:21:07.118Z,0.00
2023-04-15T02:22:07.105Z,0.00
2023-04-15T02:23:07.087Z,0.00
2023-04-15T02:24:07.074Z,0.00
2023-04-15T02:25:07.058Z,0.00
2023-04-15T02:26:07.046Z,0.00
2023-04-15T02:27:07.028Z,0.00
2023-04-15T02:28:07.012Z,0.00
2023-04-15T02:29:06.996Z,0.00
2023-04-15T02:30:06.985Z,0.00
2023-04-15T02:31:06.967Z,0.00
2023-04-15T02:32:07.037Z,0.00
2023-04-15T02:33:06.940Z,0.00
2023-04-15T02:34:06.927Z,0.00
2023-04-15T02:35:06.920Z,0.00
2023-04-15T02:36:06.917Z,0.00
2023-04-15T02:37:06.882Z,0.00
2023-04-15T02:38:06.868Z,0.00
2023-04-15T02:39:06.854Z,0.00
2023-04-15T02:40:06.834Z,0.00
2023-04-15T02:41:06.815Z,0.00
2023-04-15T02:42:06.812Z,0.00
2023-04-15T02:43:06.794Z,0.00
2023-04-15T02:44:06.784Z,0.00
2023-04-15T02:45:06.760Z,0.00
2023-04-15T02:46:06.814Z,0.00
2023-04-15T02:47:06.728Z,0.00
2023-04-15T02:48:06.803Z,0.00
2023-04-15T02:49:06.698Z,0.00
2023-04-15T02:50:06.688Z,0.00
2023-04-15T02:51:06.669Z,0.00
2023-04-15T02:52:06.674Z,0.00
2023-04-15T02:53:06.638Z,0.00
2023-04-15T02:54:06.624Z,0.00
2023-04-15T02:55:06.616Z,0.00
2023-04-15T02:56:06.591Z,0.00
2023-04-15T02:57:06.578Z,0.00
2023-04-15T02:58:06.564Z,0.00
2023-04-15T02:59:06.548Z,0.00
2023-04-15T03:00:06.535Z,0.00
2023-04-15T03:01:06.547Z,0.00
2023-04-15T03:02:06.516Z,0.00
2023-04-15T03:03:06.714Z,0.00
2023-04-15T03:04:06.536Z,0.00
2023-04-15T03:05:06.459Z,0.00
2023-04-15T03:06:06.446Z,0.00
2023-04-15T03:07:06.440Z,0.00
2023-04-15T03:08:06.436Z,0.00
2023-04-15T03:09:06.401Z,0.00
2023-04-15T03:10:06.381Z,0.00
2023-04-15T03:11:06.371Z,0.00
2023-04-15T03:12:06.353Z,0.00
2023-04-15T03:13:06.339Z,0.00
2023-04-15T03:14:06.327Z,0.00
2023-04-15T03:15:06.305Z,0.00
2023-04-15T03:16:06.332Z,0.00
2023-04-15T03:17:06.285Z,0.00
2023-04-15T03:18:06.266Z,0.00
2023-04-15T03:19:06.246Z,0.00
2023-04-15T03:20:06.261Z,0.00
2023-04-15T03:21:06.215Z,0.00
2023-04-15T03:22:06.206Z,0.00
2023-04-15T03:23:06.188Z,0.00
2023-04-15T03:24:06.197Z,0.00
2023-04-15T03:25:06.155Z,0.00
2023-04-15T03:26:06.156Z,0.00
2023-04-15T03:27:06.137Z,0.00
2023-04-15T03:28:06.132Z,0.00
2023-04-15T03:29:06.099Z,0.00
2023-04-15T03:30:06.094Z,0.00
2023-04-15T03:31:06.076Z,0.00
2023-04-15T03:32:06.063Z,0.00
2023-04-15T03:33:06.047Z,0.00
2023-04-15T03:34:06.033Z,0.00
2023-04-15T03:35:06.012Z,0.00
2023-04-15T03:36:05.998Z,0.00
2023-04-15T03:37:05.995Z,0.00
2023-04-15T03:38:05.973Z,0.00
2023-04-15T03:39:05.952Z,0.00
2023-04-15T03:40:05.959Z,0.00
2023-04-15T03:41:05.922Z,0.00
2023-04-15T03:42:05.910Z,0.00
2023-04-15T03:43:05.893Z,0.00
2023-04-15T03:44:05.885Z,0.00
2023-04-15T03:45:05.862Z,0.00
2023-04-15T03:46:05.879Z,0.00
2023-04-15T03:47:05.841Z,0.00
2023-04-15T03:48:16.767Z,0.00
2023-04-15T03:49:05.804Z,0.00
2023-04-15T03:50:05.802Z,0.00
2023-04-15T03:51:05.774Z,0.00
2023-04-15T03:52:05.775Z,0.00
2023-04-15T03:53:05.752Z,0.00
2023-04-15T03:54:05.737Z,0.00
2023-04-15T03:55:05.714Z,0.00
2023-04-15T03:56:05.729Z,0.00
2023-04-15T03:57:05.695Z,0.00
2023-04-15T03:58:05.686Z,0.00
2023-04-15T03:59:05.663Z,0.00
2023-04-15T04:00:05.648Z,0.00
2023-04-15T04:01:05.626Z,0.00
2023-04-15T04:02:05.842Z,0.00
2023-04-15T04:03:05.747Z,0.00
2023-04-15T04:04:05.668Z,0.00
2023-04-15T04:05:05.568Z,0.00
2023-04-15T04:06:05.555Z,0.00
2023-04-15T04:07:05.539Z,0.00
2023-04-15T04:08:05.524Z,0.00
2023-04-15T04:09:05.708Z,0.00
2023-04-15T04:10:05.494Z,0.00
2023-04-15T04:11:05.475Z,0.00
2023-04-15T04:12:05.485Z,0.00
2023-04-15T04:13:05.457Z,0.00
2023-04-15T04:14:05.434Z,0.00
2023-04-15T04:15:05.417Z,0.00
2023-04-15T04:16:05.495Z,0.00
2023-04-15T04:17:05.489Z,0.00
2023-04-15T04:18:05.376Z,0.00
2023-04-15T04:19:05.373Z,0.00
2023-04-15T04:20:05.360Z,0.00
2023-04-15T04:21:05.344Z,4.00
2023-04-15T04:22:05.319Z,4.00
2023-04-15T04:23:05.296Z,0.00
2023-04-15T04:24:05.285Z,4.00
2023-04-15T04:25:05.269Z,4.00
2023-04-15T04:26:05.263Z,4.00
2023-04-15T04:27:05.241Z,4.00
2023-04-15T04:28:05.244Z,4.00
2023-04-15T04:29:05.210Z,4.00
2023-04-15T04:30:05.207Z,4.00
2023-04-15T04:31:05.190Z,8.00
2023-04-15T04:32:05.190Z,8.00
2023-04-15T04:33:05.194Z,12.00
2023-04-15T04:34:05.137Z,12.00
2023-04-15T04:35:05.129Z,12.00
2023-04-15T04:36:05.106Z,12.00
2023-04-15T04:37:05.089Z,16.00
2023-04-15T04:38:05.078Z,16.00
2023-04-15T04:39:05.058Z,20.00
2023-04-15T04:40:05.051Z,24.00
2023-04-15T04:41:05.029Z,24.00
2023-04-15T04:42:05.017Z,28.00
2023-04-15T04:43:05.004Z,32.00
2023-04-15T04:44:05.016Z,32.00
2023-04-15T04:45:04.980Z,32.00
2023-04-15T04:46:04.994Z,36.00
2023-04-15T04:47:04.943Z,40.00
2023-04-15T04:48:04.962Z,44.00
2023-04-15T04:49:05.128Z,44.00
2023-04-15T04:50:04.899Z,52.00
2023-04-15T04:51:04.884Z,56.00
2023-04-15T04:52:04.866Z,56.00
2023-04-15T04:53:04.849Z,60.00
2023-04-15T04:54:04.842Z,64.00
2023-04-15T04:55:04.819Z,68.00
2023-04-15T04:56:04.807Z,76.00
2023-04-15T04:57:04.798Z,80.00
2023-04-15T04:58:04.780Z,88.00
2023-04-15T04:59:04.760Z,88.00
2023-04-15T05:00:04.768Z,96.00
2023-04-15T05:01:04.769Z,100.00
2023-04-15T05:02:04.816Z,104.00
2023-04-15T05:03:04.846Z,112.00
2023-04-15T05:04:05.172Z,116.00
2023-04-15T05:05:04.672Z,124.00
2023-04-15T05:06:04.661Z,128.00
2023-04-15T05:07:04.649Z,136.00
2023-04-15T05:08:04.633Z,144.00
2023-04-15T05:09:04.613Z,148.00
2023-04-15T05:10:04.604Z,156.00
2023-04-15T05:11:04.585Z,160.00
2023-04-15T05:12:04.571Z,168.00
2023-04-15T05:13:04.554Z,172.00
2023-04-15T05:14:04.540Z,180.00
2023-04-15T05:15:04.526Z,184.00
2023-04-15T05:16:04.610Z,184.00
2023-04-15T05:17:04.505Z,188.00
2023-04-15T05:18:04.511Z,192.00
2023-04-15T05:19:04.469Z,196.00
2023-04-15T05:20:04.527Z,200.00
2023-04-15T05:21:04.438Z,208.00
2023-04-15T05:22:04.428Z,216.00
2023-04-15T05:23:04.414Z,228.00
2023-04-15T05:24:04.395Z,244.00
2023-04-15T05:25:04.388Z,256.00
2023-04-15T05:26:04.362Z,276.00
2023-04-15T05:27:04.359Z,292.00
2023-04-15T05:28:04.333Z,304.00
2023-04-15T05:29:04.467Z,320.00
2023-04-15T05:30:04.299Z,332.00
2023-04-15T05:31:04.335Z,348.00
2023-04-15T05:32:04.291Z,360.00
2023-04-15T05:33:04.281Z,380.00
2023-04-15T05:34:04.242Z,396.00
2023-04-15T05:35:04.231Z,416.00
2023-04-15T05:36:04.217Z,440.00
2023-04-15T05:37:04.201Z,464.00
2023-04-15T05:38:04.189Z,492.00
2023-04-15T05:39:04.256Z,516.00
2023-04-15T05:40:04.156Z,540.00
2023-04-15T05:41:04.148Z,564.00
2023-04-15T05:42:04.125Z,596.00
2023-04-15T05:43:04.122Z,620.00
2023-04-15T05:44:04.105Z,636.00
2023-04-15T05:45:04.080Z,640.00
2023-04-15T05:46:04.110Z,640.00
2023-04-15T05:47:04.062Z,648.00
2023-04-15T05:48:04.056Z,656.00
2023-04-15T05:49:04.108Z,668.00
2023-04-15T05:50:04.007Z,676.00
2023-04-15T05:51:04.008Z,692.00
2023-04-15T05:52:04.007Z,712.00
2023-04-15T05:53:03.972Z,728.00
2023-04-15T05:54:03.950Z,744.00
2023-04-15T05:55:03.938Z,756.00
2023-04-15T05:56:03.920Z,768.00
2023-04-15T05:57:03.926Z,776.00
2023-04-15T05:58:03.890Z,776.00
2023-04-15T05:59:03.900Z,776.00
2023-04-15T06:01:03.847Z,776.00
2023-04-15T06:02:03.863Z,772.00
2023-04-15T06:03:03.904Z,772.00
2023-04-15T06:04:03.930Z,776.00
2023-04-15T06:05:03.984Z,776.00
2023-04-15T06:06:03.794Z,772.00
2023-04-15T06:07:03.763Z,772.00
2023-04-15T06:08:03.748Z,772.00
2023-04-15T06:09:04.051Z,784.00
2023-04-15T06:10:03.720Z,792.00
2023-04-15T06:11:03.702Z,808.00
2023-04-15T06:12:03.692Z,816.00
2023-04-15T06:13:03.673Z,828.00
2023-04-15T06:14:03.662Z,840.00
2023-04-15T06:15:03.644Z,848.00
2023-04-15T06:16:03.679Z,844.00
2023-04-15T06:17:03.616Z,848.00
2023-04-15T06:18:03.621Z,864.00
2023-04-15T06:19:03.661Z,884.00
2023-04-15T06:20:03.594Z,908.00
2023-04-15T06:21:03.557Z,936.00
2023-04-15T06:22:03.549Z,968.00
2023-04-15T06:23:03.531Z,1000.00
2023-04-15T06:24:03.517Z,1036.00
2023-04-15T06:25:03.507Z,1072.00
2023-04-15T06:26:03.492Z,1100.00
2023-04-15T06:27:03.478Z,1128.00
2023-04-15T06:28:03.459Z,1156.00
2023-04-15T06:29:03.634Z,1184.00
2023-04-15T06:30:03.434Z,1204.00
2023-04-15T06:31:03.436Z,1216.00
2023-04-15T06:32:03.407Z,1228.00
2023-04-15T06:33:03.442Z,1228.00
2023-04-15T06:34:03.377Z,1212.00
2023-04-15T06:35:03.358Z,1188.00
2023-04-15T06:36:03.364Z,1156.00
2023-04-15T06:37:05.074Z,1116.00
2023-04-15T06:38:03.319Z,1080.00
2023-04-15T06:39:03.584Z,1048.00
2023-04-15T06:40:03.293Z,1036.00
2023-04-15T06:41:03.274Z,1036.00
2023-04-15T06:42:03.263Z,1036.00
2023-04-15T06:43:03.249Z,1040.00
2023-04-15T06:44:03.234Z,1044.00
2023-04-15T06:45:03.311Z,1048.00
2023-04-15T06:46:03.296Z,1064.00
2023-04-15T06:48:03.175Z,1116.00
2023-04-15T06:49:03.379Z,1144.00
2023-04-15T06:50:03.146Z,1176.00
2023-04-15T06:51:03.136Z,1216.00
2023-04-15T06:52:03.136Z,1244.00
2023-04-15T06:53:03.123Z,1268.00
2023-04-15T06:54:03.092Z,1292.00
2023-04-15T06:55:03.246Z,1308.00
2023-04-15T06:56:03.062Z,1316.00
2023-04-15T06:57:03.054Z,1312.00
2023-04-15T06:58:03.032Z,1308.00
2023-04-15T06:59:03.117Z,1300.00
2023-04-15T07:00:03.008Z,1288.00
2023-04-15T07:01:03.034Z,1268.00
2023-04-15T07:02:03.038Z,1236.00
2023-04-15T07:03:02.986Z,1192.00
2023-04-15T07:04:02.957Z,1148.00
2023-04-15T07:05:02.944Z,1108.00
2023-04-15T07:06:02.925Z,1076.00
2023-04-15T07:07:02.917Z,1064.00
2023-04-15T07:08:02.916Z,1048.00
2023-04-15T07:09:03.168Z,1028.00
2023-04-15T07:10:02.868Z,1008.00
2023-04-15T07:11:02.875Z,1004.00
2023-04-15T07:12:02.843Z,996.00
2023-04-15T07:13:02.828Z,1000.00
2023-04-15T07:14:02.814Z,1000.00
2023-04-15T07:15:02.814Z,1008.00
2023-04-15T07:16:02.788Z,1008.00
2023-04-15T07:17:02.817Z,1020.00
2023-04-15T07:18:02.858Z,1044.00
2023-04-15T07:19:03.098Z,1084.00
2023-04-15T07:20:02.729Z,1120.00
2023-04-15T07:21:02.727Z,1140.00
2023-04-15T07:22:02.705Z,1156.00
2023-04-15T07:23:02.710Z,1196.00
2023-04-15T07:24:02.899Z,1244.00
2023-04-15T07:25:02.672Z,1292.00
2023-04-15T07:26:02.657Z,1324.00
2023-04-15T07:27:02.655Z,1332.00
2023-04-15T07:28:02.632Z,1344.00
2023-04-15T07:29:02.975Z,1360.00
2023-04-15T07:30:02.598Z,1392.00
2023-04-15T07:31:02.614Z,1432.00
2023-04-15T07:32:02.572Z,1480.00
2023-04-15T07:33:02.577Z,1520.00
2023-04-15T07:34:02.544Z,1548.00
2023-04-15T07:35:02.530Z,1584.00
2023-04-15T07:36:02.515Z,1620.00
2023-04-15T07:37:02.502Z,1664.00
2023-04-15T07:38:02.487Z,1708.00
2023-04-15T07:39:02.889Z,1744.00
2023-04-15T07:40:02.491Z,1788.00
2023-04-15T07:41:02.455Z,1832.00
2023-04-15T07:42:02.570Z,1880.00
2023-04-15T07:43:02.425Z,1932.00
2023-04-15T07:44:02.411Z,1976.00
2023-04-15T07:45:02.408Z,2020.00
2023-04-15T07:46:02.402Z,2064.00
2023-04-15T07:47:02.372Z,2084.00
2023-04-15T07:48:02.412Z,2100.00
2023-04-15T07:49:02.572Z,2108.00
2023-04-15T07:50:02.328Z,2124.00
2023-04-15T07:51:02.331Z,2148.00
2023-04-15T07:52:02.306Z,2176.00
2023-04-15T07:53:02.294Z,2216.00
2023-04-15T07:54:02.278Z,2236.00
2023-04-15T07:55:02.281Z,2272.00
2023-04-15T07:56:02.330Z,2324.00
2023-04-15T07:57:02.242Z,2368.00
2023-04-15T07:58:02.226Z,2428.00
2023-04-15T07:59:02.464Z,2484.00
2023-04-15T08:00:02.200Z,2524.00
2023-04-15T08:01:02.209Z,2552.00
2023-04-15T08:02:02.252Z,2604.00
2023-04-15T08:03:02.400Z,2656.00
2023-04-15T08:04:02.255Z,2612.00
2023-04-15T08:05:02.203Z,2552.00
2023-04-15T08:06:02.126Z,2500.00
2023-04-15T08:07:02.115Z,2488.00
2023-04-15T08:08:02.102Z,2488.00
2023-04-15T08:09:02.327Z,2492.00
2023-04-15T08:10:02.141Z,2464.00
2023-04-15T08:11:02.074Z,2356.00
2023-04-15T08:12:02.173Z,2316.00
2023-04-15T08:13:02.048Z,2276.00
2023-04-15T08:14:02.102Z,2256.00
2023-04-15T08:15:02.012Z,2236.00
2023-04-15T08:16:02.015Z,2240.00
2023-04-15T08:17:01.990Z,2252.00
2023-04-15T08:18:01.972Z,2272.00
2023-04-15T08:19:02.188Z,2304.00
2023-04-15T08:20:01.945Z,2316.00
2023-04-15T08:21:01.935Z,2336.00
2023-04-15T08:22:01.922Z,2348.00
2023-04-15T08:23:01.916Z,2348.00
2023-04-15T08:24:01.925Z,2332.00
2023-04-15T08:25:01.946Z,2328.00
2023-04-15T08:26:01.877Z,2316.00
2023-04-15T08:27:01.866Z,2292.00
2023-04-15T08:28:01.869Z,2268.00
2023-04-15T08:29:02.255Z,2252.00
2023-04-15T08:30:04.155Z,2212.00
2023-04-15T08:31:01.818Z,2196.00
2023-04-15T08:32:01.801Z,2184.00
2023-04-15T08:33:01.838Z,2176.00
2023-04-15T08:34:01.794Z,2176.00
2023-04-15T08:35:01.785Z,2176.00
2023-04-15T08:36:01.768Z,2176.00
2023-04-15T08:37:01.746Z,2172.00
2023-04-15T08:38:01.736Z,2168.00
2023-04-15T08:39:01.968Z,2164.00
2023-04-15T08:40:01.715Z,2152.00
2023-04-15T08:41:01.719Z,2140.00
2023-04-15T08:42:01.685Z,2124.00
2023-04-15T08:43:01.684Z,2116.00
2023-04-15T08:44:01.674Z,2112.00
2023-04-15T08:45:01.651Z,2112.00
2023-04-15T08:46:01.680Z,2104.00
2023-04-15T08:47:01.779Z,2112.00
2023-04-15T08:48:01.656Z,2120.00
2023-04-15T08:49:01.774Z,2136.00
2023-04-15T08:50:01.591Z,2164.00
2023-04-15T08:51:01.580Z,2192.00
2023-04-15T08:52:01.587Z,2216.00
2023-04-15T08:53:01.560Z,2240.00
2023-04-15T08:54:01.563Z,2264.00
2023-04-15T08:55:01.621Z,2268.00
2023-04-15T08:56:01.526Z,2268.00
2023-04-15T08:57:01.510Z,2260.00
2023-04-15T08:58:01.495Z,2236.00
2023-04-15T08:59:01.791Z,2204.00
2023-04-15T09:00:02.989Z,2168.00
2023-04-15T09:01:01.508Z,2144.00
2023-04-15T09:02:01.539Z,2136.00
2023-04-15T09:03:01.503Z,2136.00
2023-04-15T09:04:01.449Z,2144.00
2023-04-15T09:05:01.414Z,2144.00
2023-04-15T09:06:01.398Z,2132.00
2023-04-15T09:07:01.389Z,2116.00
2023-04-15T09:08:01.484Z,2100.00
2023-04-15T09:09:01.543Z,2072.00
2023-04-15T09:10:01.352Z,2040.00
2023-04-15T09:11:01.341Z,2004.00
2023-04-15T09:12:01.324Z,1980.00
2023-04-15T09:13:01.322Z,1956.00
2023-04-15T09:14:01.307Z,1940.00
2023-04-15T09:15:01.291Z,1924.00
2023-04-15T09:16:01.299Z,1912.00
2023-04-15T09:17:01.420Z,1908.00
2023-04-15T09:18:01.264Z,1908.00
2023-04-15T09:19:01.394Z,1912.00
2023-04-15T09:20:01.234Z,1924.00
2023-04-15T09:21:01.218Z,1944.00
2023-04-15T09:22:01.236Z,1972.00
2023-04-15T09:23:01.201Z,2004.00
2023-04-15T09:24:01.845Z,2040.00
2023-04-15T09:25:35.147Z,2064.00
2023-04-15T09:26:01.166Z,2108.00
2023-04-15T09:27:01.141Z,2164.00
2023-04-15T09:28:01.144Z,2172.00
2023-04-15T09:29:01.118Z,2176.00
2023-04-15T09:30:01.106Z,2216.00
2023-04-15T09:31:01.220Z,2236.00
2023-04-15T09:32:01.097Z,2244.00
2023-04-15T09:33:01.103Z,2244.00
2023-04-15T09:34:01.361Z,2236.00
2023-04-15T09:35:01.047Z,2240.00
2023-04-15T09:37:01.020Z,2244.00
2023-04-15T09:38:01.008Z,2248.00
2023-04-15T09:39:00.993Z,2268.00
2023-04-15T09:40:00.993Z,2296.00
2023-04-15T09:41:00.981Z,2320.00
2023-04-15T09:42:00.958Z,2356.00
2023-04-15T09:43:00.944Z,2388.00
2023-04-15T09:44:01.264Z,2404.00
2023-04-15T09:45:00.916Z,2448.00
2023-04-15T09:46:00.922Z,2484.00
2023-04-15T09:47:00.893Z,2508.00
2023-04-15T09:48:00.969Z,2516.00
2023-04-15T09:49:00.869Z,2516.00
2023-04-15T09:50:00.903Z,2536.00
2023-04-15T09:51:00.850Z,2576.00
2023-04-15T09:52:05.683Z,2620.00
2023-04-15T09:53:00.829Z,2648.00
2023-04-15T09:54:01.053Z,2676.00
2023-04-15T09:55:00.815Z,2704.00
2023-04-15T09:57:00.785Z,2728.00
2023-04-15T09:58:00.780Z,2728.00
2023-04-15T09:59:00.758Z,2720.00
2023-04-15T10:00:00.743Z,2700.00
2023-04-15T10:01:00.771Z,2644.00
2023-04-15T10:02:00.783Z,2600.00
2023-04-15T10:03:00.838Z,2544.00
2023-04-15T10:04:01.000Z,2452.00
2023-04-15T10:05:00.695Z,2332.00
2023-04-15T10:06:00.689Z,2216.00
2023-04-15T10:07:00.672Z,2120.00
2023-04-15T10:08:00.654Z,2044.00
2023-04-15T10:09:00.666Z,1996.00
2023-04-15T10:10:00.634Z,1988.00
2023-04-15T10:11:00.625Z,2012.00
2023-04-15T10:12:00.608Z,2028.00
2023-04-15T10:13:00.599Z,2044.00
2023-04-15T10:14:00.875Z,2068.00
2023-04-15T10:15:00.580Z,2100.00
2023-04-15T10:16:00.659Z,2112.00
2023-04-15T10:17:00.558Z,2092.00
2023-04-15T10:18:00.558Z,2056.00
2023-04-15T10:19:00.536Z,2024.00
2023-04-15T10:20:00.562Z,2020.00
2023-04-15T10:21:00.509Z,2028.00
2023-04-15T10:22:00.497Z,2056.00
2023-04-15T10:23:00.490Z,2064.00
2023-04-15T10:24:00.629Z,2048.00
2023-04-15T10:25:00.469Z,2044.00
2023-04-15T10:26:00.462Z,2080.00
2023-04-15T10:27:00.444Z,2136.00
2023-04-15T10:28:00.428Z,2208.00
2023-04-15T10:29:00.437Z,2300.00
2023-04-15T10:30:00.404Z,2384.00
2023-04-15T10:31:00.428Z,2464.00
2023-04-15T10:32:00.384Z,2520.00
2023-04-15T10:33:00.428Z,2552.00
2023-04-15T10:34:00.527Z,2576.00
2023-04-15T10:35:00.360Z,2600.00
2023-04-15T10:36:00.372Z,2628.00
2023-04-15T10:37:00.331Z,2660.00
2023-04-15T10:38:00.316Z,2684.00
2023-04-15T10:39:00.310Z,2716.00
2023-04-15T10:40:00.291Z,2756.00
2023-04-15T10:41:00.283Z,2792.00
2023-04-15T10:42:00.267Z,2824.00
2023-04-15T10:43:00.261Z,2844.00
2023-04-15T10:44:00.566Z,2840.00
2023-04-15T10:45:00.237Z,2824.00
2023-04-15T10:46:00.236Z,2792.00
2023-04-15T10:47:00.392Z,2720.00
2023-04-15T10:48:02.887Z,2624.00
2023-04-15T10:49:00.194Z,2520.00
2023-04-15T10:50:00.196Z,2432.00
2023-04-15T10:51:00.170Z,2372.00
2023-04-15T10:52:00.176Z,2316.00
2023-04-15T10:53:00.149Z,2288.00
2023-04-15T10:54:00.165Z,2292.00
2023-04-15T10:55:00.133Z,2320.00
2023-04-15T10:56:00.146Z,2356.00
2023-04-15T10:57:00.155Z,2364.00
2023-04-15T10:58:00.100Z,2348.00
2023-04-15T10:59:00.130Z,2344.00
2023-04-15T11:00:00.183Z,2312.00
2023-04-15T11:01:00.055Z,2228.00
2023-04-15T11:03:00.307Z,2084.00
2023-04-15T11:04:00.166Z,2012.00
2023-04-15T11:05:00.036Z,1924.00
2023-04-15T11:05:59.998Z,1840.00
2023-04-15T11:06:59.981Z,1772.00
2023-04-15T11:07:59.995Z,1724.00
2023-04-15T11:08:59.966Z,1680.00
2023-04-15T11:09:59.955Z,1636.00
2023-04-15T11:10:59.943Z,1596.00
2023-04-15T11:11:59.930Z,1572.00
2023-04-15T11:12:59.913Z,1560.00
2023-04-15T11:13:59.922Z,1544.00
2023-04-15T11:14:59.897Z,1540.00
2023-04-15T11:15:59.888Z,1556.00
2023-04-15T11:16:59.872Z,1568.00
2023-04-15T11:17:59.893Z,1608.00
2023-04-15T11:18:59.847Z,1668.00
2023-04-15T11:19:59.840Z,1744.00
2023-04-15T11:20:59.823Z,1840.00
2023-04-15T11:21:59.815Z,1968.00
2023-04-15T11:23:14.584Z,2136.00
2023-04-15T11:24:00.767Z,2324.00
2023-04-15T11:24:59.779Z,2480.00
2023-04-15T11:25:59.776Z,2584.00
2023-04-15T11:26:59.762Z,2668.00
2023-04-15T11:27:59.749Z,2728.00
2023-04-15T11:28:59.737Z,2780.00
2023-04-15T11:29:59.730Z,2828.00
2023-04-15T11:30:59.716Z,2848.00
2023-04-15T11:31:59.788Z,2848.00
2023-04-15T11:32:59.716Z,2844.00
2023-04-15T11:33:59.808Z,2848.00
2023-04-15T11:34:59.676Z,2876.00
2023-04-15T11:35:59.665Z,2908.00
2023-04-15T11:36:59.647Z,2904.00
2023-04-15T11:37:59.641Z,2848.00
2023-04-15T11:38:59.641Z,2788.00
2023-04-15T11:39:59.772Z,2768.00
2023-04-15T11:40:59.625Z,2756.00
2023-04-15T11:41:59.803Z,2748.00
2023-04-15T11:44:59.567Z,2836.00
2023-04-15T11:45:59.628Z,2804.00
2023-04-15T11:46:59.545Z,2808.00
2023-04-15T11:47:59.569Z,2852.00
2023-04-15T11:48:59.526Z,2924.00
2023-04-15T11:49:59.515Z,3036.00
2023-04-15T11:50:59.507Z,3136.00
2023-04-15T11:51:59.495Z,3200.00
2023-04-15T11:52:59.487Z,3232.00
2023-04-15T11:53:59.483Z,3236.00
2023-04-15T11:54:59.465Z,3232.00
2023-04-15T11:55:59.470Z,3228.00
2023-04-15T11:56:59.446Z,3212.00
2023-04-15T11:57:59.435Z,3176.00
2023-04-15T11:58:59.461Z,3140.00
2023-04-15T11:59:59.413Z,3100.00
2023-04-15T12:00:59.399Z,3060.00
2023-04-15T12:01:59.726Z,3016.00
2023-04-15T12:02:59.475Z,2988.00
2023-04-15T12:03:59.438Z,2952.00
2023-04-15T12:04:59.413Z,2912.00
2023-04-15T12:05:59.349Z,2868.00
2023-04-15T12:06:59.333Z,2832.00
2023-04-15T12:07:59.327Z,2808.00
2023-04-15T12:08:59.334Z,2792.00
2023-04-15T12:09:59.309Z,2780.00
2023-04-15T12:10:59.292Z,2764.00
2023-04-15T12:11:59.307Z,2740.00
2023-04-15T12:12:59.277Z,2732.00
2023-04-15T12:13:59.265Z,2724.00
2023-04-15T12:14:59.460Z,2716.00
2023-04-15T12:15:59.311Z,2708.00
2023-04-15T12:16:59.231Z,2704.00
2023-04-15T12:17:59.237Z,2704.00
2023-04-15T12:18:59.214Z,2708.00
2023-04-15T12:19:59.203Z,2704.00
2023-04-15T12:20:59.192Z,2696.00
2023-04-15T12:22:00.404Z,2684.00
2023-04-15T12:22:59.173Z,2672.00
2023-04-15T12:23:59.165Z,2660.00
2023-04-15T12:24:59.154Z,2652.00
2023-04-15T12:25:59.154Z,2648.00
2023-04-15T12:26:59.134Z,2652.00
2023-04-15T12:27:59.144Z,2656.00
2023-04-15T12:28:59.114Z,2680.00
2023-04-15T12:29:59.107Z,2708.00
2023-04-15T12:30:59.106Z,2744.00
2023-04-15T12:31:59.121Z,2776.00
2023-04-15T12:32:59.096Z,2816.00
2023-04-15T12:33:59.081Z,2848.00
2023-04-15T12:34:59.052Z,2864.00
2023-04-15T12:35:59.047Z,2868.00
2023-04-15T12:36:59.072Z,2856.00
2023-04-15T12:37:59.029Z,2844.00
2023-04-15T12:38:59.017Z,2820.00
2023-04-15T12:39:59.013Z,2804.00
2023-04-15T12:40:59.002Z,2780.00
2023-04-15T12:41:58.988Z,2772.00